Bassett, Arkansas
Current Conditions -  °F | °C
As of 11:50 PM on Thursday 27 Nov 2014 (Local Time) from KNQA Reporting Station
Few Clouds Few Clouds  
Wind Chill: 28°   Ceiling: Unl
Heat Index: 28°   Visibility: 10mi
Dew Point: 27°   Wind: 0mph
Humidity: 93%   Direction: NA
Pressure: 30.46"   Gusts: NA
Location:  35.54°N, 90.13°W
Report Text: KNQA 280550Z 00000KT 10SM FEW250 M02/M03 A3046
Loading
Personal Weather Stations






























Interactive Weather Map New forecast layout! Learn more

10-Day Weather Forecast

Advertisements
Track Severe Weather on mobile